Time;durP1;ratioP1;P1;durP2;ratioP2;P2;SDS_P1;SDS_P2;PMS_P1;PMS_P2;Temp;Humidity;BMP_temperature;BMP_pressure;BME280_temperature;BME280_humidity;BME280_pressure;Samples;Min_cycle;Max_cycle;Signal;HPM_P1;HPM_P2
2022/06/02 00:00:20;;;;;;;;;;;11.20;99.90;;;;;;5096348;28;20366;-74
2022/06/02 00:02:50;;;;;;;;;;;11.20;99.90;;;;;;5096216;28;19916;-74
2022/06/02 00:05:17;;;;;;;;;;;11.20;99.90;;;;;;5087394;28;20408;-74
2022/06/02 00:08:02;;;;;;;;;;;11.30;99.90;;;;;;5091152;28;19908;-75
2022/06/02 00:10:49;;;;;;;;;;;11.30;99.90;;;;;;5096059;28;20317;-74
2022/06/02 00:13:27;;;;;;;;;;;11.30;99.90;;;;;;5096005;28;20282;-74
2022/06/02 00:15:58;;;;;;;;;;;11.30;99.90;;;;;;5095760;28;20252;-74
2022/06/02 00:18:27;;;;;;;;;;;11.30;99.90;;;;;;5096011;28;19920;-74
2022/06/02 00:21:23;;;;;;;;;;;11.40;99.90;;;;;;5095548;28;19908;-74
2022/06/02 00:23:54;;;;;;;;;;;11.50;99.90;;;;;;5090558;28;19908;-74
2022/06/02 00:26:40;;;;;;;;;;;11.60;99.90;;;;;;5095941;28;19908;-75
2022/06/02 00:29:13;;;;;;;;;;;11.80;99.90;;;;;;5095749;28;19922;-74
2022/06/02 00:31:52;;;;;;;;;;;12.00;99.90;;;;;;5095589;28;20336;-75
2022/06/02 00:34:37;;;;;;;;;;;12.10;99.90;;;;;;5095652;28;20247;-75
2022/06/02 00:37:21;;;;;;;;;;;12.10;99.90;;;;;;5095521;28;20670;-75
2022/06/02 00:39:49;;;;;;;;;;;12.00;99.90;;;;;;5095255;28;19950;-76
2022/06/02 00:42:15;;;;;;;;;;;12.00;99.90;;;;;;5095528;28;19908;-75
2022/06/02 00:44:51;;;;;;;;;;;12.10;99.90;;;;;;5095447;28;20306;-75
2022/06/02 00:47:41;;;;;;;;;;;12.10;99.90;;;;;;5095447;28;19923;-75
2022/06/02 00:50:12;;;;;;;;;;;12.10;99.90;;;;;;5095426;28;19947;-75
2022/06/02 00:52:42;;;;;;;;;;;12.20;99.90;;;;;;5094755;28;19919;-75
2022/06/02 00:58:21;;;;;;;;;;;12.20;99.90;;;;;;5095128;28;20016;-75
2022/06/02 01:01:16;;;;;;;;;;;12.40;99.90;;;;;;5095148;28;19994;-74
2022/06/02 01:03:47;;;;;;;;;;;12.40;99.90;;;;;;5089828;28;19908;-74
2022/06/02 01:06:25;;;;;;;;;;;12.50;99.90;;;;;;5095075;28;19995;-75
2022/06/02 01:09:00;;;;;;;;;;;12.60;99.90;;;;;;5094870;28;20393;-75
2022/06/02 01:11:34;;;;;;;;;;;12.70;99.90;;;;;;5094984;28;19915;-74
2022/06/02 01:14:23;;;;;;;;;;;12.80;99.90;;;;;;5094832;28;20374;-75
2022/06/02 01:16:53;;;;;;;;;;;12.80;99.90;;;;;;5084320;28;19916;-75
2022/06/02 01:19:38;;;;;;;;;;;12.90;99.90;;;;;;5094813;28;19919;-75
2022/06/02 01:22:21;;;;;;;;;;;13.00;99.90;;;;;;5093250;28;19931;-76
2022/06/02 01:25:00;;;;;;;;;;;13.00;99.90;;;;;;5094564;28;19912;-75
2022/06/02 01:27:35;;;;;;;;;;;13.00;99.90;;;;;;5094600;28;19915;-75
2022/06/02 01:30:20;;;;;;;;;;;13.10;99.90;;;;;;5094630;28;19908;-75
2022/06/02 01:32:56;;;;;;;;;;;12.90;99.90;;;;;;5093847;28;19910;-75
2022/06/02 01:35:25;;;;;;;;;;;12.90;99.90;;;;;;5094543;28;19943;-75
2022/06/02 01:37:55;;;;;;;;;;;12.80;99.90;;;;;;5094143;28;19981;-76
2022/06/02 01:40:39;;;;;;;;;;;12.90;99.90;;;;;;5094342;28;19908;-76
2022/06/02 01:43:06;;;;;;;;;;;12.90;99.90;;;;;;5094436;28;20013;-75
2022/06/02 01:45:39;;;;;;;;;;;12.90;99.90;;;;;;5094172;28;20034;-75
2022/06/02 01:48:21;;;;;;;;;;;12.90;99.90;;;;;;5094345;28;20028;-75
2022/06/02 01:51:08;;;;;;;;;;;12.80;99.90;;;;;;5094274;28;19909;-75
2022/06/02 01:53:34;;;;;;;;;;;12.90;99.90;;;;;;5093705;28;20255;-75
2022/06/02 01:56:19;;;;;;;;;;;12.90;99.90;;;;;;5093931;28;19909;-74
2022/06/02 01:58:49;;;;;;;;;;;12.90;99.90;;;;;;5094137;28;19924;-75
2022/06/02 02:01:33;;;;;;;;;;;12.90;99.90;;;;;;5092753;28;19933;-75
2022/06/02 02:04:03;;;;;;;;;;;12.90;99.90;;;;;;5093807;28;19908;-74
2022/06/02 02:07:02;;;;;;;;;;;13.00;99.90;;;;;;5093706;28;20000;-75
2022/06/02 02:09:35;;;;;;;;;;;13.00;99.90;;;;;;5081546;28;20390;-74
2022/06/02 02:12:02;;;;;;;;;;;13.00;99.90;;;;;;5093820;28;19935;-73
2022/06/02 02:14:37;;;;;;;;;;;13.00;99.90;;;;;;5093805;28;19931;-74
2022/06/02 02:17:21;;;;;;;;;;;13.00;99.90;;;;;;5093692;28;19923;-74
2022/06/02 02:19:58;;;;;;;;;;;13.00;99.90;;;;;;5093463;28;19919;-74
2022/06/02 02:22:47;;;;;;;;;;;12.90;99.90;;;;;;5093380;28;20282;-74
2022/06/02 02:25:35;;;;;;;;;;;13.00;99.90;;;;;;5090397;28;19931;-74
2022/06/02 02:28:14;;;;;;;;;;;13.10;99.90;;;;;;5093599;28;20278;-74
2022/06/02 02:30:43;;;;;;;;;;;13.10;99.90;;;;;;5093421;28;19998;-75
2022/06/02 02:33:28;;;;;;;;;;;13.20;99.90;;;;;;5093465;28;20370;-74
2022/06/02 02:36:00;;;;;;;;;;;13.10;99.90;;;;;;5093221;28;19974;-74
2022/06/02 02:38:42;;;;;;;;;;;13.10;99.90;;;;;;5086119;28;19966;-75
2022/06/02 02:41:22;;;;;;;;;;;13.20;99.90;;;;;;5077381;28;19909;-74
2022/06/02 02:44:03;;;;;;;;;;;13.30;99.90;;;;;;5071933;28;19913;-75
2022/06/02 02:46:49;;;;;;;;;;;13.30;99.90;;;;;;5072232;28;19917;-74
2022/06/02 02:49:42;;;;;;;;;;;13.40;99.90;;;;;;5072375;28;19909;-74
2022/06/02 02:52:20;;;;;;;;;;;13.40;99.90;;;;;;5069983;28;19926;-74
2022/06/02 02:55:05;;;;;;;;;;;13.40;99.90;;;;;;5072542;28;19917;-74
2022/06/02 02:57:47;;;;;;;;;;;13.40;99.90;;;;;;5072174;28;19916;-74
2022/06/02 03:00:22;;;;;;;;;;;13.40;99.90;;;;;;5072456;28;20050;-74
2022/06/02 03:02:58;;;;;;;;;;;13.40;99.90;;;;;;5072203;28;19913;-75
2022/06/02 03:05:24;;;;;;;;;;;13.50;99.90;;;;;;5072230;28;19916;-74
2022/06/02 03:07:51;;;;;;;;;;;13.60;99.90;;;;;;5086329;28;20354;-74
2022/06/02 03:10:26;;;;;;;;;;;13.50;99.90;;;;;;5113370;28;19911;-74
2022/06/02 03:12:55;;;;;;;;;;;13.60;99.90;;;;;;5113387;28;19908;-73
2022/06/02 03:15:25;;;;;;;;;;;13.60;99.90;;;;;;5113246;28;20389;-74
2022/06/02 03:18:00;;;;;;;;;;;13.70;99.90;;;;;;5113117;28;19923;-74
2022/06/02 03:20:38;;;;;;;;;;;13.70;99.90;;;;;;5113446;28;19907;-73
2022/06/02 03:23:27;;;;;;;;;;;13.60;99.90;;;;;;5113295;28;19907;-74
2022/06/02 03:25:58;;;;;;;;;;;13.70;99.90;;;;;;5113017;28;19907;-74
2022/06/02 03:28:24;;;;;;;;;;;13.70;99.90;;;;;;5113649;28;20365;-74
2022/06/02 03:31:04;;;;;;;;;;;13.60;99.90;;;;;;5113277;28;20281;-74
2022/06/02 03:33:39;;;;;;;;;;;13.50;99.90;;;;;;5112957;28;19915;-73
2022/06/02 03:36:12;;;;;;;;;;;13.60;99.90;;;;;;5113084;28;19999;-76
2022/06/02 03:38:57;;;;;;;;;;;13.50;99.90;;;;;;5111006;28;20386;-73
2022/06/02 03:41:29;;;;;;;;;;;13.50;99.90;;;;;;5082296;28;20354;-74
2022/06/02 03:43:59;;;;;;;;;;;13.50;99.90;;;;;;5092163;28;19908;-73
2022/06/02 03:46:50;;;;;;;;;;;13.60;99.90;;;;;;5091950;28;20054;-74
2022/06/02 03:49:29;;;;;;;;;;;13.50;99.90;;;;;;5112742;28;19908;-73
2022/06/02 03:52:06;;;;;;;;;;;13.50;99.90;;;;;;5112922;28;19916;-74
2022/06/02 03:55:05;;;;;;;;;;;13.40;99.90;;;;;;5114029;28;19974;-74
2022/06/02 03:57:50;;;;;;;;;;;13.40;99.90;;;;;;5082658;28;19916;-74
2022/06/02 04:00:38;;;;;;;;;;;13.40;99.90;;;;;;5116906;28;19961;-74
2022/06/02 04:03:06;;;;;;;;;;;13.40;99.90;;;;;;5115420;28;19912;-73
2022/06/02 04:05:35;;;;;;;;;;;13.30;99.90;;;;;;5116466;28;19908;-74
2022/06/02 04:08:02;;;;;;;;;;;13.40;99.90;;;;;;5116763;28;19908;-73
2022/06/02 04:10:35;;;;;;;;;;;13.40;99.90;;;;;;5116480;28;20526;-74
2022/06/02 04:15:49;;;;;;;;;;;13.60;99.90;;;;;;5116117;28;20282;-75
2022/06/02 04:18:22;;;;;;;;;;;13.60;99.90;;;;;;5116365;28;20015;-74
2022/06/02 04:21:07;;;;;;;;;;;13.50;99.90;;;;;;5116094;28;19935;-75
2022/06/02 04:23:56;;;;;;;;;;;13.60;99.90;;;;;;5114791;28;20255;-74
2022/06/02 04:26:32;;;;;;;;;;;13.60;99.90;;;;;;5116130;28;19907;-75
2022/06/02 04:29:12;;;;;;;;;;;13.80;99.90;;;;;;5116195;28;19926;-75
2022/06/02 04:31:54;;;;;;;;;;;13.70;99.90;;;;;;5116097;28;19951;-75
2022/06/02 04:34:26;;;;;;;;;;;13.80;99.90;;;;;;5115955;28;19915;-75
2022/06/02 04:36:53;;;;;;;;;;;13.80;99.90;;;;;;5115759;28;19999;-75
2022/06/02 04:39:22;;;;;;;;;;;13.80;99.90;;;;;;5115947;28;19915;-76
2022/06/02 04:42:01;;;;;;;;;;;13.80;99.90;;;;;;5115751;28;20378;-74
2022/06/02 04:44:27;;;;;;;;;;;13.90;99.90;;;;;;5097982;28;19919;-75
2022/06/02 04:47:00;;;;;;;;;;;13.90;99.90;;;;;;5081357;28;19916;-76
2022/06/02 04:49:41;;;;;;;;;;;13.90;99.90;;;;;;5074473;28;20406;-76
2022/06/02 04:52:20;;;;;;;;;;;14.00;99.90;;;;;;5113549;28;19918;-75
2022/06/02 04:55:01;;;;;;;;;;;14.00;99.90;;;;;;5115634;28;19918;-75
2022/06/02 04:57:38;;;;;;;;;;;13.90;99.90;;;;;;5115429;28;19926;-75
2022/06/02 05:00:12;;;;;;;;;;;14.00;99.90;;;;;;5115543;28;19914;-75
2022/06/02 05:02:52;;;;;;;;;;;13.90;99.90;;;;;;5115345;28;19937;-75
2022/06/02 05:05:27;;;;;;;;;;;13.80;99.90;;;;;;5114939;28;20476;-75
2022/06/02 05:08:23;;;;;;;;;;;13.80;99.90;;;;;;5114639;28;20278;-74
2022/06/02 05:11:07;;;;;;;;;;;13.80;99.90;;;;;;5101577;28;19914;-75
2022/06/02 05:13:40;;;;;;;;;;;13.90;99.90;;;;;;5115282;28;20337;-75
2022/06/02 05:16:39;;;;;;;;;;;13.90;99.90;;;;;;5115206;28;19908;-75
2022/06/02 05:19:31;;;;;;;;;;;13.90;99.90;;;;;;5080893;28;19977;-75
2022/06/02 05:22:07;;;;;;;;;;;14.00;99.90;;;;;;5111923;28;20370;-75
2022/06/02 05:24:56;;;;;;;;;;;13.90;99.90;;;;;;5115151;28;19940;-75
2022/06/02 05:27:26;;;;;;;;;;;13.90;99.90;;;;;;5114991;27;19915;-74
2022/06/02 05:29:52;;;;;;;;;;;13.90;99.90;;;;;;5113718;28;20222;-74
2022/06/02 05:32:22;;;;;;;;;;;13.90;99.90;;;;;;5115051;28;20010;-74
2022/06/02 05:35:07;;;;;;;;;;;14.00;99.90;;;;;;5114829;28;19964;-75
2022/06/02 05:37:51;;;;;;;;;;;13.90;99.90;;;;;;5113957;28;19924;-74
2022/06/02 05:40:27;;;;;;;;;;;13.90;99.90;;;;;;5114885;28;20288;-75
2022/06/02 05:43:02;;;;;;;;;;;13.80;99.90;;;;;;5114765;28;19912;-74
2022/06/02 05:45:29;;;;;;;;;;;13.70;99.90;;;;;;5114914;28;19947;-74
2022/06/02 05:48:15;;;;;;;;;;;13.70;99.90;;;;;;5114807;28;19908;-74
2022/06/02 05:50:45;;;;;;;;;;;13.70;99.90;;;;;;5114432;28;19908;-74
2022/06/02 05:53:25;;;;;;;;;;;13.60;99.90;;;;;;5114338;28;19919;-74
2022/06/02 05:55:52;;;;;;;;;;;13.70;99.90;;;;;;5114170;28;20320;-75
2022/06/02 05:58:37;;;;;;;;;;;13.70;99.90;;;;;;5114604;28;19924;-75
2022/06/02 06:01:22;;;;;;;;;;;13.80;99.90;;;;;;5114456;28;20354;-75
2022/06/02 06:03:59;;;;;;;;;;;13.80;99.90;;;;;;5113853;28;19969;-76
2022/06/02 06:06:40;;;;;;;;;;;13.70;99.90;;;;;;5113845;28;19914;-75
2022/06/02 06:09:15;;;;;;;;;;;13.60;99.90;;;;;;5114224;28;19998;-75
2022/06/02 06:12:11;;;;;;;;;;;13.50;99.90;;;;;;5114136;28;19908;-74
2022/06/02 06:14:37;;;;;;;;;;;13.60;99.90;;;;;;5058761;28;20335;-76
2022/06/02 06:17:10;;;;;;;;;;;13.60;99.90;;;;;;5113785;28;20377;-75
2022/06/02 06:20:06;;;;;;;;;;;13.60;99.90;;;;;;5113892;28;19973;-74
2022/06/02 06:22:48;;;;;;;;;;;13.50;99.90;;;;;;5058937;28;19909;-74
2022/06/02 06:25:33;;;;;;;;;;;13.50;99.90;;;;;;5113893;28;19953;-75
2022/06/02 06:28:11;;;;;;;;;;;13.40;99.90;;;;;;5113991;28;19914;-75
2022/06/02 06:30:56;;;;;;;;;;;13.40;99.90;;;;;;5113904;28;19922;-75
2022/06/02 06:33:38;;;;;;;;;;;13.30;99.90;;;;;;5113714;28;19907;-76
2022/06/02 06:36:11;;;;;;;;;;;13.20;99.90;;;;;;5113543;28;19994;-76
2022/06/02 06:38:47;;;;;;;;;;;13.20;99.90;;;;;;5113722;28;19961;-75
2022/06/02 06:41:13;;;;;;;;;;;13.10;99.90;;;;;;5113722;28;20003;-75
2022/06/02 06:43:58;;;;;;;;;;;13.10;99.90;;;;;;5113442;28;19914;-75
2022/06/02 06:46:28;;;;;;;;;;;13.00;99.90;;;;;;5112287;28;20307;-75
2022/06/02 06:48:59;;;;;;;;;;;12.90;99.90;;;;;;5114044;28;19907;-75
2022/06/02 06:51:32;;;;;;;;;;;12.80;99.90;;;;;;5111683;28;20362;-75
2022/06/02 06:54:09;;;;;;;;;;;12.70;99.90;;;;;;5111388;28;20019;-75
2022/06/02 06:56:51;;;;;;;;;;;12.60;99.90;;;;;;5111429;28;19912;-75
2022/06/02 06:59:17;;;;;;;;;;;12.50;99.90;;;;;;5111418;28;19919;-74
2022/06/02 07:01:50;;;;;;;;;;;12.50;99.90;;;;;;5111103;28;19912;-73
2022/06/02 07:04:55;;;;;;;;;;;12.50;99.90;;;;;;5102055;28;20014;-75
2022/06/02 07:07:51;;;;;;;;;;;12.40;99.90;;;;;;5048091;28;19909;-75
2022/06/02 07:10:24;;;;;;;;;;;12.40;99.90;;;;;;4979103;28;20012;-75
2022/06/02 07:12:50;;;;;;;;;;;12.30;99.90;;;;;;5063830;28;20367;-74
2022/06/02 07:15:20;;;;;;;;;;;12.30;99.90;;;;;;5071029;28;20432;-73
2022/06/02 07:18:07;;;;;;;;;;;12.20;99.90;;;;;;5070023;28;19947;-74
2022/06/02 07:20:36;;;;;;;;;;;12.20;99.90;;;;;;5058990;28;19908;-74
2022/06/02 07:23:12;;;;;;;;;;;12.10;99.90;;;;;;5070612;28;20000;-74
2022/06/02 07:25:39;;;;;;;;;;;12.10;99.90;;;;;;5070347;28;20461;-74
2022/06/02 07:28:10;;;;;;;;;;;12.00;99.90;;;;;;5070535;28;19916;-75
2022/06/02 07:30:36;;;;;;;;;;;12.00;99.90;;;;;;5072753;28;19999;-74
2022/06/02 07:33:21;;;;;;;;;;;12.00;99.90;;;;;;5074226;28;20438;-75
2022/06/02 07:35:53;;;;;;;;;;;12.00;99.90;;;;;;5073884;28;20377;-74
2022/06/02 07:38:38;;;;;;;;;;;12.00;99.90;;;;;;5074233;28;19942;-75
2022/06/02 07:41:17;;;;;;;;;;;12.00;99.90;;;;;;5074336;28;19908;-74
2022/06/02 07:44:02;;;;;;;;;;;12.00;99.90;;;;;;5073462;28;19961;-74
2022/06/02 07:46:36;;;;;;;;;;;12.00;99.90;;;;;;5074086;28;19928;-75
2022/06/02 07:49:15;;;;;;;;;;;12.00;99.90;;;;;;5073883;28;20565;-74
2022/06/02 07:52:07;;;;;;;;;;;12.00;99.90;;;;;;5073573;28;19979;-75
2022/06/02 07:54:57;;;;;;;;;;;11.90;99.90;;;;;;5072883;28;19920;-74
2022/06/02 07:57:24;;;;;;;;;;;11.90;99.90;;;;;;5070550;28;19920;-75
2022/06/02 07:59:50;;;;;;;;;;;11.90;99.90;;;;;;5073707;28;19920;-75
2022/06/02 08:02:49;;;;;;;;;;;11.90;99.90;;;;;;5074155;28;19912;-75
2022/06/02 08:05:51;;;;;;;;;;;11.80;99.90;;;;;;5061140;28;19912;-74
2022/06/02 08:08:29;;;;;;;;;;;11.80;99.90;;;;;;5051131;28;19909;-74
2022/06/02 08:10:56;;;;;;;;;;;11.90;99.90;;;;;;5070607;28;19908;-75
2022/06/02 08:13:23;;;;;;;;;;;11.90;99.90;;;;;;5073501;28;19915;-75
2022/06/02 08:15:56;;;;;;;;;;;12.00;99.90;;;;;;5073469;28;19908;-75
2022/06/02 08:18:26;;;;;;;;;;;12.00;99.90;;;;;;5073389;28;19923;-75
2022/06/02 08:20:55;;;;;;;;;;;12.10;99.90;;;;;;5073373;28;19908;-75
2022/06/02 08:23:25;;;;;;;;;;;12.10;99.90;;;;;;5073124;28;19913;-74
2022/06/02 08:25:57;;;;;;;;;;;12.10;99.90;;;;;;5073328;28;19913;-75
2022/06/02 08:28:43;;;;;;;;;;;12.10;99.90;;;;;;5073514;28;19954;-75
2022/06/02 08:31:13;;;;;;;;;;;12.00;99.90;;;;;;5073408;28;19916;-75
2022/06/02 08:33:50;;;;;;;;;;;12.00;99.90;;;;;;5073041;28;19913;-75
2022/06/02 08:36:20;;;;;;;;;;;11.90;99.90;;;;;;5072810;28;19912;-74
2022/06/02 08:38:50;;;;;;;;;;;11.90;99.90;;;;;;5073404;28;19924;-74
2022/06/02 08:41:36;;;;;;;;;;;11.90;99.90;;;;;;5072939;28;20427;-74
2022/06/02 08:44:23;;;;;;;;;;;11.90;99.90;;;;;;5073190;28;19995;-74
2022/06/02 08:46:49;;;;;;;;;;;11.90;99.90;;;;;;5072971;28;19912;-75
2022/06/02 08:49:30;;;;;;;;;;;11.90;99.90;;;;;;5072569;28;20260;-75
2022/06/02 08:51:59;;;;;;;;;;;11.80;99.90;;;;;;5073002;28;20003;-74
2022/06/02 08:54:44;;;;;;;;;;;11.90;99.90;;;;;;5073116;28;19923;-75
2022/06/02 08:57:10;;;;;;;;;;;11.80;99.90;;;;;;5072905;28;19920;-75
2022/06/02 08:59:52;;;;;;;;;;;11.90;99.90;;;;;;5072551;28;20393;-74
2022/06/02 09:02:35;;;;;;;;;;;11.90;99.90;;;;;;5072583;28;19943;-74
2022/06/02 09:05:05;;;;;;;;;;;11.90;99.90;;;;;;5073026;28;19915;-74
2022/06/02 09:07:32;;;;;;;;;;;11.90;99.90;;;;;;5074583;28;19915;-75
2022/06/02 09:10:11;;;;;;;;;;;11.90;99.90;;;;;;5074372;28;19919;-75
2022/06/02 09:12:38;;;;;;;;;;;11.90;99.90;;;;;;5074176;28;19934;-75
2022/06/02 09:15:34;;;;;;;;;;;11.90;99.90;;;;;;5074752;28;19908;-74
2022/06/02 09:18:04;;;;;;;;;;;11.90;99.90;;;;;;5069649;28;19920;-75
2022/06/02 09:20:33;;;;;;;;;;;11.90;99.90;;;;;;5106848;28;19916;-74
2022/06/02 09:23:06;;;;;;;;;;;11.90;99.90;;;;;;5074553;28;19909;-74
2022/06/02 09:25:52;;;;;;;;;;;11.90;99.90;;;;;;5074231;28;19908;-73
2022/06/02 09:28:21;;;;;;;;;;;11.80;99.90;;;;;;5106357;28;20270;-74
2022/06/02 09:30:54;;;;;;;;;;;11.80;99.90;;;;;;5074843;28;19908;-75
2022/06/02 09:33:43;;;;;;;;;;;11.80;99.90;;;;;;5074327;28;20449;-75
2022/06/02 09:36:27;;;;;;;;;;;11.70;99.90;;;;;;5074006;28;19913;-74
2022/06/02 09:39:10;;;;;;;;;;;11.70;99.90;;;;;;5074390;28;20011;-74
2022/06/02 09:41:43;;;;;;;;;;;11.80;99.90;;;;;;5073987;28;19961;-74
2022/06/02 09:44:10;;;;;;;;;;;11.80;99.90;;;;;;5074165;28;19916;-74
2022/06/02 09:46:58;;;;;;;;;;;11.80;99.90;;;;;;5074115;28;20280;-76
2022/06/02 09:49:36;;;;;;;;;;;11.80;99.90;;;;;;5063213;28;19915;-74
2022/06/02 09:52:04;;;;;;;;;;;11.70;99.90;;;;;;5073079;28;19921;-74
2022/06/02 09:54:49;;;;;;;;;;;11.70;99.90;;;;;;5073950;28;19908;-74
2022/06/02 09:57:56;;;;;;;;;;;11.80;99.90;;;;;;5073381;28;19916;-74
2022/06/02 10:00:25;;;;;;;;;;;11.70;99.90;;;;;;5073835;28;20378;-74
2022/06/02 10:03:10;;;;;;;;;;;11.80;99.90;;;;;;5073707;28;19912;-74
2022/06/02 10:05:49;;;;;;;;;;;11.80;99.90;;;;;;5073458;28;19916;-74
2022/06/02 10:08:38;;;;;;;;;;;11.80;99.90;;;;;;5073737;28;19962;-74
2022/06/02 10:11:20;;;;;;;;;;;11.90;99.90;;;;;;5073959;28;20002;-74
2022/06/02 10:14:06;;;;;;;;;;;11.90;99.90;;;;;;5072655;28;19909;-74
2022/06/02 10:16:56;;;;;;;;;;;11.90;99.90;;;;;;5073609;28;19947;-74
2022/06/02 10:19:40;;;;;;;;;;;11.90;99.90;;;;;;5073227;28;19912;-74
2022/06/02 10:22:25;;;;;;;;;;;11.90;99.90;;;;;;5073322;28;20006;-73
2022/06/02 10:24:52;;;;;;;;;;;11.90;99.90;;;;;;5073483;28;19934;-75
2022/06/02 10:27:37;;;;;;;;;;;11.90;99.90;;;;;;5072866;28;19912;-76
2022/06/02 10:30:22;;;;;;;;;;;11.90;99.90;;;;;;5073450;28;20000;-74
2022/06/02 10:32:52;;;;;;;;;;;11.90;99.90;;;;;;5073430;28;19920;-74
2022/06/02 10:35:36;;;;;;;;;;;12.00;99.90;;;;;;5073194;28;19966;-74
2022/06/02 10:38:18;;;;;;;;;;;12.00;99.90;;;;;;5073299;28;20386;-76
2022/06/02 10:41:03;;;;;;;;;;;11.90;99.90;;;;;;5073346;28;19909;-74
2022/06/02 10:43:45;;;;;;;;;;;11.90;99.90;;;;;;5072536;28;20278;-76
2022/06/02 10:46:29;;;;;;;;;;;11.90;99.90;;;;;;5073178;28;19955;-75
2022/06/02 10:49:00;;;;;;;;;;;11.80;99.90;;;;;;5073105;28;20317;-74
2022/06/02 10:51:45;;;;;;;;;;;11.70;99.90;;;;;;5072851;28;20363;-75
2022/06/02 10:54:30;;;;;;;;;;;11.70;99.90;;;;;;5073116;28;19917;-74
2022/06/02 10:57:00;;;;;;;;;;;11.70;99.90;;;;;;5072450;28;19920;-75
2022/06/02 10:59:28;;;;;;;;;;;11.60;99.90;;;;;;5073188;28;19966;-74
2022/06/02 11:01:58;;;;;;;;;;;11.60;99.90;;;;;;5073038;28;19908;-74
2022/06/02 11:04:43;;;;;;;;;;;11.50;99.90;;;;;;5073720;28;19908;-73
2022/06/02 11:07:23;;;;;;;;;;;11.50;99.90;;;;;;5077061;28;19909;-73
2022/06/02 11:10:07;;;;;;;;;;;11.60;99.90;;;;;;5076691;28;19909;-73
2022/06/02 11:12:46;;;;;;;;;;;11.50;99.90;;;;;;5076459;28;19909;-73
2022/06/02 11:15:14;;;;;;;;;;;11.60;99.90;;;;;;5076995;28;19999;-74
2022/06/02 11:17:49;;;;;;;;;;;11.60;99.90;;;;;;5076760;28;19999;-74
2022/06/02 11:20:34;;;;;;;;;;;11.70;99.90;;;;;;5076824;28;20000;-74
2022/06/02 11:23:16;;;;;;;;;;;11.80;99.90;;;;;;5077043;28;20410;-73
2022/06/02 11:26:01;;;;;;;;;;;11.90;99.90;;;;;;5076999;28;20274;-73
2022/06/02 11:28:45;;;;;;;;;;;12.00;99.90;;;;;;5076425;28;19915;-73
2022/06/02 11:31:27;;;;;;;;;;;12.00;99.90;;;;;;5076778;28;19952;-73
2022/06/02 11:34:04;;;;;;;;;;;12.00;99.90;;;;;;5076248;28;20358;-73
2022/06/02 11:36:48;;;;;;;;;;;12.10;99.90;;;;;;5076597;28;20356;-74
2022/06/02 11:39:21;;;;;;;;;;;12.10;99.90;;;;;;5076445;28;20337;-73
2022/06/02 11:42:00;;;;;;;;;;;12.10;99.90;;;;;;5075746;28;20394;-74
2022/06/02 11:44:35;;;;;;;;;;;12.00;99.90;;;;;;5076302;28;19909;-74
2022/06/02 11:47:14;;;;;;;;;;;12.00;99.90;;;;;;5076246;28;20409;-74
2022/06/02 11:49:53;;;;;;;;;;;12.00;99.90;;;;;;5075688;28;19909;-74
2022/06/02 11:52:38;;;;;;;;;;;12.00;99.90;;;;;;5076186;28;19927;-74
2022/06/02 11:55:22;;;;;;;;;;;12.10;99.90;;;;;;5076256;28;19937;-74
2022/06/02 11:57:57;;;;;;;;;;;12.10;99.90;;;;;;5075335;28;19920;-74
2022/06/02 12:00:24;;;;;;;;;;;12.00;99.90;;;;;;5076125;28;19916;-73
2022/06/02 12:03:09;;;;;;;;;;;12.10;99.90;;;;;;5075951;28;20367;-75
2022/06/02 12:05:42;;;;;;;;;;;12.00;99.90;;;;;;5075871;28;20307;-75
2022/06/02 12:08:18;;;;;;;;;;;11.90;99.90;;;;;;5076100;28;19912;-73
2022/06/02 12:10:57;;;;;;;;;;;11.80;99.90;;;;;;5075389;28;20252;-73
2022/06/02 12:13:52;;;;;;;;;;;11.80;99.90;;;;;;5076058;28;19912;-73
2022/06/02 12:16:28;;;;;;;;;;;11.90;99.90;;;;;;5070485;28;19912;-73
2022/06/02 12:19:01;;;;;;;;;;;11.80;99.90;;;;;;5075659;28;19917;-73
2022/06/02 12:21:41;;;;;;;;;;;11.70;99.90;;;;;;5076088;28;19912;-75
2022/06/02 12:24:07;;;;;;;;;;;11.60;99.90;;;;;;5075775;28;20229;-73
2022/06/02 12:26:52;;;;;;;;;;;11.50;99.90;;;;;;5075157;28;19909;-73
2022/06/02 12:29:39;;;;;;;;;;;11.40;99.90;;;;;;5075636;28;20282;-73
2022/06/02 12:32:18;;;;;;;;;;;11.30;99.90;;;;;;5064268;28;19908;-74
2022/06/02 12:34:51;;;;;;;;;;;11.30;99.90;;;;;;5075407;28;19908;-73
2022/06/02 12:37:27;;;;;;;;;;;11.40;99.90;;;;;;5075527;28;19924;-73
2022/06/02 12:39:54;;;;;;;;;;;11.40;99.90;;;;;;5075307;28;19912;-73
2022/06/02 12:42:30;;;;;;;;;;;11.50;99.90;;;;;;5074523;28;19998;-73
2022/06/02 12:45:14;;;;;;;;;;;11.50;99.90;;;;;;5075381;28;19951;-74
2022/06/02 12:47:59;;;;;;;;;;;11.50;99.90;;;;;;5075245;28;19913;-73
2022/06/02 12:50:42;;;;;;;;;;;11.50;99.90;;;;;;5075679;28;19912;-74
2022/06/02 12:53:19;;;;;;;;;;;11.60;99.90;;;;;;5075239;28;19950;-75
2022/06/02 12:55:58;;;;;;;;;;;11.70;99.90;;;;;;5075218;28;19914;-75
2022/06/02 12:58:24;;;;;;;;;;;11.90;99.90;;;;;;5075040;28;19917;-75
2022/06/02 13:01:09;;;;;;;;;;;11.90;99.90;;;;;;5074928;28;20259;-75
2022/06/02 13:03:47;;;;;;;;;;;11.90;99.90;;;;;;5074937;28;19909;-74
2022/06/02 13:06:34;;;;;;;;;;;12.00;99.90;;;;;;5075022;28;19912;-75
2022/06/02 13:09:19;;;;;;;;;;;11.90;99.90;;;;;;5074516;28;19955;-75
2022/06/02 13:11:48;;;;;;;;;;;12.00;99.90;;;;;;5074650;28;19923;-74
2022/06/02 13:14:33;;;;;;;;;;;12.00;99.90;;;;;;5074291;28;19908;-74
2022/06/02 13:17:14;;;;;;;;;;;11.90;99.90;;;;;;5074522;28;19920;-74
2022/06/02 13:19:46;;;;;;;;;;;11.90;99.90;;;;;;5074482;28;19934;-76
2022/06/02 13:22:31;;;;;;;;;;;12.00;99.90;;;;;;5074435;28;20295;-74
2022/06/02 13:25:16;;;;;;;;;;;12.00;99.90;;;;;;5074147;28;19908;-75
2022/06/02 13:27:59;;;;;;;;;;;11.90;99.90;;;;;;5073330;28;19934;-75
2022/06/02 13:30:49;;;;;;;;;;;12.00;99.90;;;;;;5074538;28;19955;-75
2022/06/02 13:33:26;;;;;;;;;;;11.90;99.90;;;;;;5074308;28;19916;-75
2022/06/02 13:36:01;;;;;;;;;;;12.00;99.90;;;;;;5074191;28;19973;-75
2022/06/02 13:38:44;;;;;;;;;;;12.00;99.90;;;;;;5074180;28;20367;-75
2022/06/02 13:41:34;;;;;;;;;;;12.00;99.90;;;;;;5074223;28;19962;-75
2022/06/02 13:44:13;;;;;;;;;;;12.00;99.90;;;;;;5074302;28;19954;-75
2022/06/02 13:46:57;;;;;;;;;;;12.00;99.90;;;;;;5074120;28;19935;-75
2022/06/02 13:49:42;;;;;;;;;;;11.90;99.90;;;;;;5073970;28;19908;-75
2022/06/02 13:52:27;;;;;;;;;;;12.00;99.90;;;;;;5073978;28;20023;-75
2022/06/02 13:58:28;;;;;;;;;;;12.00;99.90;;;;;;5064357;28;19966;-75
2022/06/02 14:01:04;;;;;;;;;;;11.80;99.90;;;;;;5073749;28;20401;-75
2022/06/02 14:03:54;;;;;;;;;;;11.70;99.90;;;;;;5073593;28;19915;-75
2022/06/02 14:06:25;;;;;;;;;;;11.60;99.90;;;;;;5073870;28;19995;-75
2022/06/02 14:08:52;;;;;;;;;;;11.60;99.90;;;;;;5073727;28;19958;-75
2022/06/02 14:11:37;;;;;;;;;;;11.50;99.90;;;;;;5073639;28;19919;-75
2022/06/02 14:14:22;;;;;;;;;;;11.40;99.90;;;;;;5073741;28;19909;-75
2022/06/02 14:16:51;;;;;;;;;;;11.40;99.90;;;;;;5073564;28;20495;-75
2022/06/02 14:19:24;;;;;;;;;;;11.40;99.90;;;;;;5073392;28;19912;-75
2022/06/02 14:22:11;;;;;;;;;;;11.40;99.90;;;;;;5073355;28;19908;-75
2022/06/02 14:24:41;;;;;;;;;;;11.30;99.90;;;;;;5075492;28;19974;-75
2022/06/02 14:27:26;;;;;;;;;;;11.20;99.90;;;;;;5073475;28;20286;-75
2022/06/02 14:29:53;;;;;;;;;;;11.20;99.90;;;;;;5073364;28;19948;-75
2022/06/02 14:32:23;;;;;;;;;;;11.10;99.90;;;;;;5073263;28;19918;-75
2022/06/02 14:34:50;;;;;;;;;;;10.90;99.90;;;;;;5072127;28;20247;-75
2022/06/02 14:37:22;;;;;;;;;;;10.90;99.90;;;;;;5073374;28;19913;-75
2022/06/02 14:39:58;;;;;;;;;;;10.80;99.90;;;;;;5072819;28;20457;-75
2022/06/02 14:43:03;;;;;;;;;;;10.80;99.90;;;;;;5073326;28;20428;-76
2022/06/02 14:45:22;;;;;;;;;;;10.70;99.90;;;;;;5073358;28;19912;-76
2022/06/02 14:48:07;;;;;;;;;;;10.60;99.90;;;;;;5072822;28;19912;-75
2022/06/02 14:50:51;;;;;;;;;;;10.70;99.90;;;;;;5073271;28;19915;-75
2022/06/02 14:53:31;;;;;;;;;;;10.60;99.90;;;;;;5073089;28;20290;-75
2022/06/02 14:56:13;;;;;;;;;;;10.60;99.90;;;;;;5073198;28;19915;-75
2022/06/02 14:58:40;;;;;;;;;;;10.60;99.90;;;;;;5073050;28;20375;-76
2022/06/02 15:01:19;;;;;;;;;;;10.50;99.90;;;;;;5073146;28;19916;-76
2022/06/02 15:03:53;;;;;;;;;;;10.50;99.90;;;;;;5072815;28;19908;-76
2022/06/02 15:06:27;;;;;;;;;;;10.50;99.90;;;;;;5073154;28;19909;-76
2022/06/02 15:09:00;;;;;;;;;;;10.50;99.90;;;;;;5073023;28;19944;-75
2022/06/02 15:11:45;;;;;;;;;;;10.50;99.90;;;;;;5073074;28;19931;-76
2022/06/02 15:14:29;;;;;;;;;;;10.50;99.90;;;;;;5073126;28;20286;-75
2022/06/02 15:17:02;;;;;;;;;;;10.50;99.90;;;;;;5072871;28;19912;-75
2022/06/02 15:19:45;;;;;;;;;;;10.40;99.90;;;;;;5073027;28;19971;-75
2022/06/02 15:22:30;;;;;;;;;;;10.40;99.90;;;;;;5072791;28;20355;-75
2022/06/02 15:25:07;;;;;;;;;;;10.40;99.90;;;;;;5072907;28;19908;-75
2022/06/02 15:27:53;;;;;;;;;;;10.40;99.90;;;;;;5072652;28;20318;-75